createdAt,value
2023-02-09T00:01:31.738Z,-5.49
2023-02-09T00:04:00.635Z,-5.53
2023-02-09T00:06:30.332Z,-5.57
2023-02-09T00:08:59.161Z,-5.58
2023-02-09T00:11:49.101Z,-5.59
2023-02-09T00:14:21.931Z,-5.59
2023-02-09T00:16:51.808Z,-5.58
2023-02-09T00:19:21.145Z,-5.58
2023-02-09T00:21:49.221Z,-5.60
2023-02-09T00:24:17.723Z,-5.60
2023-02-09T00:26:46.485Z,-5.64
2023-02-09T00:29:15.009Z,-5.73
2023-02-09T00:31:43.651Z,-5.80
2023-02-09T00:34:11.664Z,-5.81
2023-02-09T00:36:39.648Z,-5.84
2023-02-09T00:39:08.220Z,-5.91
2023-02-09T00:41:55.965Z,-5.97
2023-02-09T00:44:24.034Z,-6.01
2023-02-09T00:46:52.424Z,-6.02
2023-02-09T00:49:21.070Z,-6.04
2023-02-09T00:51:49.130Z,-6.04
2023-02-09T00:54:17.167Z,-6.05
2023-02-09T00:56:47.014Z,-6.06
2023-02-09T00:59:15.991Z,-6.12
2023-02-09T01:01:43.819Z,-6.21
2023-02-09T01:04:11.780Z,-6.27
2023-02-09T01:06:40.221Z,-6.28
2023-02-09T01:09:08.344Z,-6.34
2023-02-09T01:11:36.237Z,-6.39
2023-02-09T01:14:05.436Z,-6.41
2023-02-09T01:16:33.735Z,-6.38
2023-02-09T01:19:04.038Z,-6.36
2023-02-09T01:21:32.394Z,-6.34
2023-02-09T01:24:00.349Z,-6.37
2023-02-09T01:26:28.293Z,-6.36
2023-02-09T01:28:56.563Z,-6.42
2023-02-09T01:31:31.273Z,-6.44
2023-02-09T01:34:01.475Z,-6.40
2023-02-09T01:36:31.139Z,-6.42
2023-02-09T01:39:01.591Z,-6.40
2023-02-09T01:41:31.194Z,-6.37
2023-02-09T01:44:02.218Z,-6.35
2023-02-09T01:46:33.374Z,-6.31
2023-02-09T01:49:15.428Z,-6.26
2023-02-09T01:51:57.201Z,-6.19
2023-02-09T01:54:41.035Z,-6.13
2023-02-09T01:57:13.894Z,-6.07
2023-02-09T01:59:44.712Z,-6.06
2023-02-09T02:02:14.093Z,-6.09
2023-02-09T02:04:44.279Z,-6.16
2023-02-09T02:07:32.481Z,-6.30
2023-02-09T02:10:02.289Z,-6.41
2023-02-09T02:12:32.237Z,-6.44
2023-02-09T02:15:00.259Z,-6.50
2023-02-09T02:17:43.923Z,-6.55
2023-02-09T02:20:49.747Z,-6.61
2023-02-09T02:23:50.520Z,-6.65
2023-02-09T02:26:55.592Z,-6.64
2023-02-09T02:29:48.676Z,-6.71
2023-02-09T02:32:28.000Z,-6.74
2023-02-09T02:35:10.924Z,-6.82
2023-02-09T02:37:47.729Z,-6.86
2023-02-09T02:40:42.224Z,-6.80
2023-02-09T02:43:52.778Z,-6.76
2023-02-09T02:46:39.805Z,-6.70
2023-02-09T02:49:10.145Z,-6.74
2023-02-09T02:51:43.299Z,-6.80
2023-02-09T02:54:42.465Z,-6.89
2023-02-09T02:57:25.494Z,-7.00
2023-02-09T03:00:30.511Z,-7.08
2023-02-09T03:03:04.004Z,-7.14
2023-02-09T03:05:33.189Z,-7.17
2023-02-09T03:08:01.092Z,-7.21
2023-02-09T03:10:34.988Z,-7.21
2023-02-09T03:13:30.740Z,-7.21
2023-02-09T03:16:05.462Z,-7.18
2023-02-09T03:18:51.103Z,-7.18
2023-02-09T03:21:42.787Z,-7.21
2023-02-09T03:24:42.896Z,-7.24
2023-02-09T03:27:23.174Z,-7.23
2023-02-09T03:29:56.042Z,-7.26
2023-02-09T03:32:25.036Z,-7.29
2023-02-09T03:34:54.817Z,-7.33
2023-02-09T03:37:24.002Z,-7.34
2023-02-09T03:39:51.815Z,-7.30
2023-02-09T03:42:19.787Z,-7.29
2023-02-09T03:44:47.726Z,-7.27
2023-02-09T03:47:15.684Z,-7.24
2023-02-09T03:49:45.635Z,-7.21
2023-02-09T03:52:15.529Z,-7.17
2023-02-09T03:54:43.498Z,-7.15
2023-02-09T03:57:11.753Z,-7.10
2023-02-09T03:59:39.918Z,-7.05
2023-02-09T04:02:10.211Z,-6.99
2023-02-09T04:04:38.073Z,-6.95
2023-02-09T04:07:06.415Z,-6.89
2023-02-09T04:09:35.107Z,-6.85
2023-02-09T04:12:03.118Z,-6.81
2023-02-09T04:14:31.058Z,-6.78
2023-02-09T04:16:58.963Z,-6.78
2023-02-09T04:19:26.894Z,-6.77
2023-02-09T04:21:54.801Z,-6.78
2023-02-09T04:24:31.960Z,-6.78
2023-02-09T04:27:00.188Z,-6.80
2023-02-09T04:29:28.310Z,-6.82
2023-02-09T04:31:56.427Z,-6.80
2023-02-09T04:34:24.816Z,-6.81
2023-02-09T04:36:52.848Z,-6.84
2023-02-09T04:39:20.830Z,-6.81
2023-02-09T04:41:48.686Z,-6.80
2023-02-09T04:44:16.632Z,-6.76
2023-02-09T04:46:45.762Z,-6.67
2023-02-09T04:49:13.935Z,-6.66
2023-02-09T04:51:41.790Z,-6.71
2023-02-09T04:54:09.719Z,-6.79
2023-02-09T04:56:38.872Z,-6.87
2023-02-09T04:59:25.972Z,-6.86
2023-02-09T05:01:53.937Z,-6.86
2023-02-09T05:04:21.897Z,-6.83
2023-02-09T05:06:49.862Z,-6.80
2023-02-09T05:09:17.710Z,-6.73
2023-02-09T05:11:45.534Z,-6.66
2023-02-09T05:14:13.583Z,-6.58
2023-02-09T05:16:41.559Z,-6.57
2023-02-09T05:19:09.834Z,-6.56
2023-02-09T05:21:37.805Z,-6.54
2023-02-09T05:24:06.043Z,-6.51
2023-02-09T05:26:33.939Z,-6.51
2023-02-09T05:29:02.344Z,-6.48
2023-02-09T05:31:30.463Z,-6.50
2023-02-09T05:33:58.428Z,-6.50
2023-02-09T05:36:26.520Z,-6.51
2023-02-09T05:38:54.332Z,-6.55
2023-02-09T05:41:41.125Z,-6.56
2023-02-09T05:44:09.236Z,-6.56
2023-02-09T05:46:37.251Z,-6.57
2023-02-09T05:49:05.181Z,-6.49
2023-02-09T05:51:33.125Z,-6.49
2023-02-09T05:54:00.918Z,-6.54
2023-02-09T05:56:28.840Z,-6.56
2023-02-09T05:58:56.874Z,-6.55
2023-02-09T06:01:24.749Z,-6.54
2023-02-09T06:03:52.697Z,-6.56
2023-02-09T06:06:20.723Z,-6.59
2023-02-09T06:08:48.554Z,-6.61
2023-02-09T06:11:16.468Z,-6.60
2023-02-09T06:13:44.500Z,-6.64
2023-02-09T06:16:12.559Z,-6.61
2023-02-09T06:18:40.670Z,-6.59
2023-02-09T06:21:08.568Z,-6.61
2023-02-09T06:23:36.465Z,-6.61
2023-02-09T06:26:11.972Z,-6.59
2023-02-09T06:28:40.271Z,-6.53
2023-02-09T06:31:09.034Z,-6.45
2023-02-09T06:33:37.990Z,-6.36
2023-02-09T06:36:07.425Z,-6.37
2023-02-09T06:38:37.453Z,-6.34
2023-02-09T06:41:05.836Z,-6.35
2023-02-09T06:43:34.202Z,-6.32
2023-02-09T06:46:10.152Z,-6.33
2023-02-09T06:48:39.313Z,-6.36
2023-02-09T06:51:13.164Z,-6.30
2023-02-09T06:53:42.888Z,-6.20
2023-02-09T06:56:11.754Z,-6.14
2023-02-09T06:58:41.282Z,-6.04
2023-02-09T07:01:15.839Z,-5.96
2023-02-09T07:03:44.311Z,-5.92
2023-02-09T07:06:18.338Z,-5.90
2023-02-09T07:08:46.538Z,-5.84
2023-02-09T07:11:17.165Z,-5.73
2023-02-09T07:13:46.787Z,-5.70
2023-02-09T07:16:15.320Z,-5.67
2023-02-09T07:18:43.394Z,-5.59
2023-02-09T07:21:15.935Z,-5.49
2023-02-09T07:23:43.862Z,-5.40
2023-02-09T07:26:15.560Z,-5.31
2023-02-09T07:28:43.480Z,-5.24
2023-02-09T07:31:14.249Z,-5.16
2023-02-09T07:33:42.979Z,-5.07
2023-02-09T07:36:13.156Z,-4.94
2023-02-09T07:38:41.445Z,-4.89
2023-02-09T07:41:18.281Z,-4.79
2023-02-09T07:43:47.025Z,-4.70
2023-02-09T07:46:17.936Z,-4.64
2023-02-09T07:48:45.802Z,-4.55
2023-02-09T07:51:25.681Z,-4.42
2023-02-09T07:53:53.939Z,-4.30
2023-02-09T07:56:23.039Z,-4.19
2023-02-09T07:58:52.522Z,-4.08
2023-02-09T08:01:21.678Z,-3.96
2023-02-09T08:03:50.759Z,-3.83
2023-02-09T08:06:40.635Z,-3.65
2023-02-09T08:09:11.694Z,-3.54
2023-02-09T08:11:53.722Z,-3.42
2023-02-09T08:14:35.784Z,-3.26
2023-02-09T08:17:20.068Z,-3.13
2023-02-09T08:19:53.188Z,-3.00
2023-02-09T08:22:23.544Z,-2.89
2023-02-09T08:24:52.101Z,-2.79
2023-02-09T08:27:20.300Z,-2.71
2023-02-09T08:29:49.098Z,-2.65
2023-02-09T08:32:17.296Z,-2.55
2023-02-09T08:34:45.342Z,-2.46
2023-02-09T08:37:13.238Z,-2.36
2023-02-09T08:39:41.082Z,-2.28
2023-02-09T08:42:08.959Z,-2.20
2023-02-09T08:44:36.752Z,-2.10
2023-02-09T08:47:05.429Z,-2.00
2023-02-09T08:49:33.364Z,-1.88
2023-02-09T08:52:01.178Z,-1.77
2023-02-09T08:54:29.208Z,-1.64
2023-02-09T08:56:57.041Z,-1.54
2023-02-09T08:59:25.019Z,-1.47
2023-02-09T09:01:53.627Z,-1.37
2023-02-09T09:04:21.903Z,-1.29
2023-02-09T09:06:50.205Z,-1.22
2023-02-09T09:09:18.173Z,-1.11
2023-02-09T09:11:46.143Z,-1.02
2023-02-09T09:14:13.915Z,-0.94
2023-02-09T09:16:41.921Z,-0.81
2023-02-09T09:19:09.784Z,-0.68
2023-02-09T09:21:37.810Z,-0.60
2023-02-09T09:24:05.750Z,-0.54
2023-02-09T09:26:34.931Z,-0.46
2023-02-09T09:29:03.508Z,-0.38
2023-02-09T09:31:33.559Z,-0.29
2023-02-09T09:34:01.713Z,-0.22
2023-02-09T09:36:29.584Z,-0.14
2023-02-09T09:38:58.458Z,-0.05
2023-02-09T09:41:36.654Z,0.03
2023-02-09T09:44:14.116Z,0.18
2023-02-09T09:46:48.668Z,0.29
2023-02-09T09:49:24.988Z,0.33
2023-02-09T09:51:59.111Z,0.39
2023-02-09T09:54:31.729Z,0.50
2023-02-09T09:57:00.528Z,0.61
2023-02-09T09:59:39.777Z,0.66
2023-02-09T10:02:31.877Z,0.79
2023-02-09T10:05:15.208Z,0.88
2023-02-09T10:07:48.585Z,0.96
2023-02-09T10:10:30.355Z,1.04
2023-02-09T10:13:02.787Z,1.18
2023-02-09T10:15:35.234Z,1.27
2023-02-09T10:18:13.036Z,1.35
2023-02-09T10:20:48.843Z,1.40
2023-02-09T10:23:29.345Z,1.52
2023-02-09T10:26:07.090Z,1.62
2023-02-09T10:28:39.195Z,1.68
2023-02-09T10:31:25.447Z,1.73
2023-02-09T10:33:58.325Z,1.74
2023-02-09T10:36:30.901Z,1.77
2023-02-09T10:39:19.213Z,1.90
2023-02-09T10:41:54.028Z,2.03
2023-02-09T10:44:27.008Z,2.08
2023-02-09T10:47:19.115Z,2.18
2023-02-09T10:49:56.654Z,2.27
2023-02-09T10:52:26.262Z,2.35
2023-02-09T10:54:57.080Z,2.44
2023-02-09T10:57:42.863Z,2.53
2023-02-09T11:00:16.703Z,2.64
2023-02-09T11:02:47.686Z,2.74
2023-02-09T11:05:35.792Z,2.86
2023-02-09T11:08:03.661Z,3.02
2023-02-09T11:10:37.889Z,3.06
2023-02-09T11:13:18.774Z,3.10
2023-02-09T11:16:07.232Z,3.07
2023-02-09T11:18:35.831Z,3.11
2023-02-09T11:21:34.065Z,3.16
2023-02-09T11:24:14.179Z,3.18
2023-02-09T11:26:58.172Z,3.25
2023-02-09T11:29:42.255Z,3.19
2023-02-09T11:32:33.049Z,3.24
2023-02-09T11:35:18.907Z,3.29
2023-02-09T11:38:10.989Z,3.39
2023-02-09T11:40:43.994Z,3.48
2023-02-09T11:43:27.201Z,3.62
2023-02-09T11:45:58.598Z,3.74
2023-02-09T11:48:34.263Z,3.80
2023-02-09T11:51:18.545Z,3.80
2023-02-09T11:53:49.390Z,3.85
2023-02-09T11:56:20.822Z,3.86
2023-02-09T11:58:57.548Z,3.89
2023-02-09T12:01:48.180Z,3.99
2023-02-09T12:04:43.963Z,4.03
2023-02-09T12:07:22.427Z,4.06
2023-02-09T12:10:05.528Z,4.11
2023-02-09T12:13:00.408Z,4.13
2023-02-09T12:15:41.940Z,4.14
2023-02-09T12:18:22.774Z,4.11
2023-02-09T12:20:59.960Z,4.08
2023-02-09T12:23:37.988Z,4.09
2023-02-09T12:26:11.768Z,4.06
2023-02-09T12:28:39.608Z,4.03
2023-02-09T12:31:12.400Z,4.07
2023-02-09T12:33:46.225Z,4.08
2023-02-09T12:36:14.035Z,4.08
2023-02-09T12:38:55.873Z,4.03
2023-02-09T12:41:28.678Z,3.98
2023-02-09T12:44:06.499Z,3.98
2023-02-09T12:46:54.663Z,3.99
2023-02-09T12:49:28.844Z,4.01
2023-02-09T12:52:03.096Z,4.03
2023-02-09T12:54:43.404Z,4.04
2023-02-09T12:57:18.858Z,4.02
2023-02-09T12:59:50.180Z,3.98
2023-02-09T13:02:38.095Z,3.96
2023-02-09T13:05:26.832Z,3.92
2023-02-09T13:08:11.776Z,3.89
2023-02-09T13:10:55.386Z,3.85
2023-02-09T13:13:32.318Z,3.80
2023-02-09T13:16:03.432Z,3.82
2023-02-09T13:19:01.192Z,3.84
2023-02-09T13:22:00.513Z,3.84
2023-02-09T13:24:41.821Z,3.80
2023-02-09T13:27:21.839Z,3.77
2023-02-09T13:29:54.957Z,3.78
2023-02-09T13:32:50.296Z,3.76
2023-02-09T13:35:44.907Z,3.76
2023-02-09T13:38:17.829Z,3.76
2023-02-09T13:40:48.480Z,3.73
2023-02-09T13:43:24.406Z,3.74
2023-02-09T13:45:55.035Z,3.74
2023-02-09T13:48:26.482Z,3.74
2023-02-09T13:50:56.467Z,3.73
2023-02-09T13:53:27.334Z,3.73
2023-02-09T13:55:58.409Z,3.75
2023-02-09T13:58:35.516Z,3.72
2023-02-09T14:01:12.904Z,3.69
2023-02-09T14:03:58.600Z,3.63
2023-02-09T14:06:41.451Z,3.58
2023-02-09T14:09:24.637Z,3.52
2023-02-09T14:11:57.825Z,3.50
2023-02-09T14:14:53.340Z,3.49
2023-02-09T14:17:25.927Z,3.44
2023-02-09T14:19:55.969Z,3.42
2023-02-09T14:22:36.214Z,3.40
2023-02-09T14:25:13.117Z,3.37
2023-02-09T14:27:45.850Z,3.30
2023-02-09T14:30:26.638Z,3.28
2023-02-09T14:32:56.686Z,3.25
2023-02-09T14:35:29.157Z,3.22
2023-02-09T14:38:02.556Z,3.18
2023-02-09T14:40:34.404Z,3.13
2023-02-09T14:43:11.618Z,3.14
2023-02-09T14:45:46.604Z,3.12
2023-02-09T14:48:32.909Z,3.09
2023-02-09T14:51:10.863Z,3.08
2023-02-09T14:53:42.260Z,3.08
2023-02-09T14:56:36.852Z,3.09
2023-02-09T14:59:06.270Z,3.08
2023-02-09T15:01:34.299Z,3.09
2023-02-09T15:04:02.208Z,3.06
2023-02-09T15:06:33.233Z,3.04
2023-02-09T15:09:02.960Z,2.99
2023-02-09T15:11:49.700Z,2.99
2023-02-09T15:14:24.427Z,2.93
2023-02-09T15:16:52.311Z,2.90
2023-02-09T15:19:22.416Z,2.85
2023-02-09T15:22:05.237Z,2.80
2023-02-09T15:24:36.262Z,2.72
2023-02-09T15:27:04.485Z,2.61
2023-02-09T15:29:34.523Z,2.51
2023-02-09T15:32:02.562Z,2.47
2023-02-09T15:34:30.460Z,2.40
2023-02-09T15:36:58.611Z,2.33
2023-02-09T15:39:30.392Z,2.26
2023-02-09T15:42:17.366Z,2.18
2023-02-09T15:45:07.338Z,2.06
2023-02-09T15:47:50.190Z,1.92
2023-02-09T15:50:18.003Z,1.80
2023-02-09T15:52:46.011Z,1.68
2023-02-09T15:55:19.903Z,1.58
2023-02-09T15:57:51.268Z,1.46
2023-02-09T16:00:22.463Z,1.32
2023-02-09T16:02:56.035Z,1.15
2023-02-09T16:05:27.202Z,1.00
2023-02-09T16:07:56.232Z,0.85
2023-02-09T16:10:27.539Z,0.72
2023-02-09T16:12:56.661Z,0.58
2023-02-09T16:15:27.437Z,0.35
2023-02-09T16:17:55.355Z,0.21
2023-02-09T16:20:25.776Z,0.09
2023-02-09T16:22:56.741Z,-0.01
2023-02-09T16:25:26.142Z,-0.11
2023-02-09T16:27:56.263Z,-0.20
2023-02-09T16:30:34.906Z,-0.31
2023-02-09T16:33:03.572Z,-0.42
2023-02-09T16:35:31.947Z,-0.54
2023-02-09T16:38:00.754Z,-0.67
2023-02-09T16:40:31.872Z,-0.77
2023-02-09T16:43:01.503Z,-0.87
2023-02-09T16:45:31.108Z,-0.95
2023-02-09T16:48:00.000Z,-1.03
2023-02-09T16:50:35.613Z,-1.11
2023-02-09T16:53:15.139Z,-1.16
2023-02-09T16:55:43.229Z,-1.19
2023-02-09T16:58:15.821Z,-1.22
2023-02-09T17:00:44.990Z,-1.25
2023-02-09T17:03:17.156Z,-1.27
2023-02-09T17:05:48.478Z,-1.33
2023-02-09T17:08:24.185Z,-1.39
2023-02-09T17:10:54.977Z,-1.45
2023-02-09T17:13:23.438Z,-1.51
2023-02-09T17:16:05.110Z,-1.55
2023-02-09T17:18:40.388Z,-1.61
2023-02-09T17:21:19.969Z,-1.65
2023-02-09T17:23:48.836Z,-1.71
2023-02-09T17:26:17.948Z,-1.75
2023-02-09T17:28:46.364Z,-1.77
2023-02-09T17:31:28.797Z,-1.77
2023-02-09T17:33:59.671Z,-1.80
2023-02-09T17:36:29.793Z,-1.79
2023-02-09T17:39:00.020Z,-1.77
2023-02-09T17:41:43.217Z,-1.76
2023-02-09T17:44:43.710Z,-1.71
2023-02-09T17:47:20.025Z,-1.68
2023-02-09T17:49:47.966Z,-1.63
2023-02-09T17:52:18.510Z,-1.62
2023-02-09T17:54:47.699Z,-1.64
2023-02-09T17:57:17.279Z,-1.68
2023-02-09T17:59:46.935Z,-1.70
2023-02-09T18:02:18.158Z,-1.75
2023-02-09T18:04:46.698Z,-1.78
2023-02-09T18:07:20.240Z,-1.81
2023-02-09T18:09:48.649Z,-1.88
2023-02-09T18:12:20.590Z,-1.87
2023-02-09T18:14:49.008Z,-1.85
2023-02-09T18:17:17.189Z,-1.85
2023-02-09T18:19:45.611Z,-1.84
2023-02-09T18:22:17.278Z,-1.84
2023-02-09T18:24:45.728Z,-1.83
2023-02-09T18:27:19.217Z,-1.85
2023-02-09T18:29:47.304Z,-1.88
2023-02-09T18:32:16.778Z,-1.86
2023-02-09T18:34:44.714Z,-1.83
2023-02-09T18:37:15.977Z,-1.83
2023-02-09T18:39:46.765Z,-1.81
2023-02-09T18:42:16.266Z,-1.78
2023-02-09T18:44:44.587Z,-1.73
2023-02-09T18:47:12.662Z,-1.64
2023-02-09T18:49:41.446Z,-1.50
2023-02-09T18:52:10.432Z,-1.33
2023-02-09T18:54:38.410Z,-1.17
2023-02-09T18:57:06.366Z,-1.02
2023-02-09T18:59:34.899Z,-0.89
2023-02-09T19:02:02.959Z,-0.81
2023-02-09T19:04:33.250Z,-0.75
2023-02-09T19:07:03.312Z,-0.73
2023-02-09T19:09:31.419Z,-0.72
2023-02-09T19:11:59.433Z,-0.63
2023-02-09T19:14:40.929Z,-0.59
2023-02-09T19:17:15.071Z,-0.50
2023-02-09T19:19:45.417Z,-0.42
2023-02-09T19:22:17.168Z,-0.37
2023-02-09T19:24:47.949Z,-0.34
2023-02-09T19:27:19.658Z,-0.27
2023-02-09T19:29:47.643Z,-0.14
2023-02-09T19:32:15.961Z,-0.04
2023-02-09T19:34:48.287Z,0.07
2023-02-09T19:37:18.639Z,0.17
2023-02-09T19:39:53.556Z,0.28
2023-02-09T19:42:22.817Z,0.40
2023-02-09T19:44:54.027Z,0.43
2023-02-09T19:47:28.515Z,0.44
2023-02-09T19:49:58.308Z,0.48
2023-02-09T19:52:28.039Z,0.48
2023-02-09T19:54:57.749Z,0.50
2023-02-09T19:57:26.112Z,0.54
2023-02-09T19:59:54.287Z,0.57
2023-02-09T20:02:22.339Z,0.57
2023-02-09T20:04:50.399Z,0.58
2023-02-09T20:07:18.387Z,0.55
2023-02-09T20:09:46.435Z,0.52
2023-02-09T20:12:14.573Z,0.49
2023-02-09T20:14:42.617Z,0.54
2023-02-09T20:17:10.561Z,0.58
2023-02-09T20:19:38.460Z,0.58
2023-02-09T20:22:06.430Z,0.57
2023-02-09T20:24:34.624Z,0.61
2023-02-09T20:27:02.659Z,0.64
2023-02-09T20:29:30.765Z,0.63
2023-02-09T20:31:58.672Z,0.62
2023-02-09T20:34:26.572Z,0.63
2023-02-09T20:36:54.580Z,0.60
2023-02-09T20:39:23.543Z,0.58
2023-02-09T20:42:14.826Z,0.58
2023-02-09T20:45:02.012Z,0.57
2023-02-09T20:47:30.197Z,0.55
2023-02-09T20:50:00.136Z,0.53
2023-02-09T20:52:29.848Z,0.52
2023-02-09T20:54:58.213Z,0.48
2023-02-09T20:57:29.468Z,0.45
2023-02-09T21:00:00.899Z,0.42
2023-02-09T21:02:29.078Z,0.40
2023-02-09T21:04:57.707Z,0.38
2023-02-09T21:07:25.776Z,0.35
2023-02-09T21:09:54.947Z,0.32
2023-02-09T21:12:23.223Z,0.29
2023-02-09T21:14:51.564Z,0.26
2023-02-09T21:17:20.432Z,0.24
2023-02-09T21:19:48.384Z,0.19
2023-02-09T21:22:18.067Z,0.14
2023-02-09T21:24:45.925Z,0.06
2023-02-09T21:27:14.306Z,0.05
2023-02-09T21:29:42.252Z,-0.02
2023-02-09T21:32:11.174Z,-0.09
2023-02-09T21:34:39.239Z,-0.11
2023-02-09T21:37:10.308Z,-0.16
2023-02-09T21:39:39.296Z,-0.20
2023-02-09T21:42:28.775Z,-0.22
2023-02-09T21:44:58.740Z,-0.25
2023-02-09T21:47:29.430Z,-0.25
2023-02-09T21:49:58.163Z,-0.29
2023-02-09T21:52:27.048Z,-0.30
2023-02-09T21:54:54.928Z,-0.29
2023-02-09T21:57:23.663Z,-0.30
2023-02-09T21:59:52.039Z,-0.29
2023-02-09T22:02:20.474Z,-0.33
2023-02-09T22:04:50.276Z,-0.34
2023-02-09T22:07:18.270Z,-0.38
2023-02-09T22:09:46.368Z,-0.43
2023-02-09T22:12:14.357Z,-0.50
2023-02-09T22:14:42.437Z,-0.58
2023-02-09T22:17:10.309Z,-0.61
2023-02-09T22:19:38.348Z,-0.67
2023-02-09T22:22:07.162Z,-0.75
2023-02-09T22:24:35.144Z,-0.76
2023-02-09T22:27:03.553Z,-0.81
2023-02-09T22:29:33.393Z,-0.88
2023-02-09T22:32:01.525Z,-0.89
2023-02-09T22:34:29.730Z,-0.91
2023-02-09T22:36:57.747Z,-0.96
2023-02-09T22:39:25.682Z,-0.99
2023-02-09T22:41:58.136Z,-1.03
2023-02-09T22:44:28.190Z,-1.06
2023-02-09T22:46:56.544Z,-1.09
2023-02-09T22:49:24.373Z,-1.12
2023-02-09T22:51:52.539Z,-1.13
2023-02-09T22:54:20.734Z,-1.15
2023-02-09T22:56:48.797Z,-1.17
2023-02-09T22:59:16.779Z,-1.16
2023-02-09T23:01:45.015Z,-1.20
2023-02-09T23:04:13.481Z,-1.22
2023-02-09T23:06:41.334Z,-1.28
2023-02-09T23:09:09.393Z,-1.30
2023-02-09T23:11:37.525Z,-1.31
2023-02-09T23:14:10.845Z,-1.32
2023-02-09T23:16:41.307Z,-1.35
2023-02-09T23:19:16.103Z,-1.39
2023-02-09T23:21:47.662Z,-1.42
2023-02-09T23:24:17.813Z,-1.42
2023-02-09T23:26:46.181Z,-1.44
2023-02-09T23:29:15.916Z,-1.46
2023-02-09T23:31:47.275Z,-1.44
2023-02-09T23:34:21.145Z,-1.42
2023-02-09T23:36:49.105Z,-1.43
2023-02-09T23:39:19.953Z,-1.47
2023-02-09T23:41:48.186Z,-1.45
2023-02-09T23:44:16.138Z,-1.46
2023-02-09T23:46:44.911Z,-1.47
2023-02-09T23:49:12.925Z,-1.49
2023-02-09T23:51:40.960Z,-1.42
2023-02-09T23:54:10.295Z,-1.42
2023-02-09T23:56:39.008Z,-1.42
2023-02-09T23:59:11.925Z,-1.45
